Time,TemperatureF,DewpointF,PressureIn,WindDirection,WindDirectionDegrees,WindSpeedMPH,WindSpeedGustMPH,Humidity,HourlyPrecipIn,Conditions,Clouds,dailyrainin,SolarRadiationWatts/m^2,SoftwareType,DateUTC
2013-02-03 00:01:00,16.0,7.0,-100.00,ENE,59,2.0,4.0,68,0.00,,,0.00,0.000000,,2013-02-03 07:01:00,
2013-02-03 00:11:00,16.0,7.0,-100.00,ENE,59,2.0,4.0,68,0.00,,,0.00,0.000000,,2013-02-03 07:11:00,
2013-02-03 00:21:00,16.0,7.0,-100.00,ENE,59,2.0,4.0,68,0.00,,,0.00,0.000000,,2013-02-03 07:21:00,
2013-02-03 00:22:00,15.0,6.0,-100.00,ESE,109,1.0,2.0,67,0.00,,,0.00,0.000000,,2013-02-03 07:22:00,
2013-02-03 00:42:00,15.0,6.0,-100.00,ESE,109,1.0,2.0,67,0.00,,,0.00,0.000000,,2013-02-03 07:42:00,
2013-02-03 00:52:00,15.0,6.0,-100.00,ESE,109,1.0,2.0,67,0.00,,,0.00,0.000000,,2013-02-03 07:52:00,
2013-02-03 01:01:00,15.0,6.0,-100.00,ESE,109,1.0,2.0,67,0.00,,,0.00,0.000000,,2013-02-03 08:01:00,
2013-02-03 01:11:00,15.0,6.0,-100.00,ESE,109,1.0,2.0,67,0.00,,,0.00,0.000000,,2013-02-03 08:11:00,
2013-02-03 01:42:00,14.0,5.0,-100.00,East,95,2.0,3.0,68,0.00,,,0.00,0.000000,,2013-02-03 08:42:00,
2013-02-03 01:52:00,14.0,5.0,-100.00,East,95,2.0,3.0,68,0.00,,,0.00,0.000000,,2013-02-03 08:52:00,
2013-02-03 02:02:00,14.0,5.0,-100.00,East,95,2.0,3.0,68,0.00,,,0.00,0.000000,,2013-02-03 09:02:00,
2013-02-03 02:11:00,14.0,5.0,-100.00,East,95,2.0,3.0,68,0.00,,,0.00,0.000000,,2013-02-03 09:11:00,
2013-02-03 02:21:00,14.0,5.0,-100.00,East,95,2.0,3.0,68,0.00,,,0.00,0.000000,,2013-02-03 09:21:00,
2013-02-03 02:42:00,12.0,6.0,-100.00,SE,130,1.0,2.0,75,0.00,,,0.00,0.000000,,2013-02-03 09:42:00,
2013-02-03 02:52:00,12.0,6.0,-100.00,SE,130,1.0,2.0,75,0.00,,,0.00,0.000000,,2013-02-03 09:52:00,
2013-02-03 03:01:00,12.0,6.0,-100.00,SE,130,1.0,2.0,75,0.00,,,0.00,0.000000,,2013-02-03 10:01:00,
2013-02-03 03:11:00,12.0,6.0,-100.00,SE,130,1.0,2.0,75,0.00,,,0.00,0.000000,,2013-02-03 10:11:00,
2013-02-03 03:21:00,12.0,6.0,-100.00,SE,130,1.0,2.0,75,0.00,,,0.00,0.000000,,2013-02-03 10:21:00,
2013-02-03 03:22:00,12.0,6.0,-100.00,East,82,0.0,2.0,75,0.00,,,0.00,0.000000,,2013-02-03 10:22:00,
2013-02-03 03:42:00,12.0,6.0,-100.00,East,82,0.0,2.0,75,0.00,,,0.00,0.000000,,2013-02-03 10:42:00,
2013-02-03 03:53:00,12.0,6.0,-100.00,East,82,0.0,2.0,75,0.00,,,0.00,0.000000,,2013-02-03 10:53:00,
2013-02-03 04:02:00,12.0,6.0,-100.00,East,82,0.0,2.0,75,0.00,,,0.00,0.000000,,2013-02-03 11:02:00,
2013-02-03 04:11:00,12.0,6.0,-100.00,East,82,0.0,2.0,75,0.00,,,0.00,0.000000,,2013-02-03 11:11:00,
2013-02-03 04:22:00,10.0,6.0,-100.00,ESE,110,1.0,2.0,85,0.00,,,0.00,0.000000,,2013-02-03 11:22:00,
2013-02-03 04:42:00,10.0,6.0,-100.00,ESE,110,1.0,2.0,85,0.00,,,0.00,0.000000,,2013-02-03 11:42:00,
2013-02-03 04:52:00,10.0,6.0,-100.00,ESE,110,1.0,2.0,85,0.00,,,0.00,0.000000,,2013-02-03 11:52:00,
2013-02-03 05:02:00,10.0,6.0,-100.00,ESE,110,1.0,2.0,85,0.00,,,0.00,0.000000,,2013-02-03 12:02:00,
2013-02-03 05:11:00,10.0,6.0,-100.00,ESE,110,1.0,2.0,85,0.00,,,0.00,0.000000,,2013-02-03 12:11:00,
2013-02-03 05:42:00,12.0,6.0,-100.00,East,93,1.0,2.0,76,0.00,,,0.00,0.000000,,2013-02-03 12:42:00,
2013-02-03 05:53:00,12.0,6.0,-100.00,East,93,1.0,2.0,76,0.00,,,0.00,0.000000,,2013-02-03 12:53:00,
2013-02-03 06:42:00,10.0,5.0,-100.00,ESE,116,1.0,2.0,80,0.00,,,0.00,0.000000,,2013-02-03 13:42:00,
2013-02-03 06:52:00,10.0,5.0,-100.00,ESE,116,1.0,2.0,80,0.00,,,0.00,0.000000,,2013-02-03 13:52:00,
2013-02-03 07:22:00,10.0,5.0,-100.00,WNW,284,1.0,2.0,80,0.00,,,0.00,1.000000,,2013-02-03 14:22:00,
2013-02-03 07:42:00,10.0,5.0,-100.00,WNW,284,1.0,2.0,80,0.00,,,0.00,1.000000,,2013-02-03 14:42:00,
2013-02-03 07:52:00,10.0,5.0,-100.00,WNW,284,1.0,2.0,80,0.00,,,0.00,1.000000,,2013-02-03 14:52:00,
2013-02-03 08:03:00,10.0,5.0,-100.00,WNW,284,1.0,2.0,80,0.00,,,0.00,1.000000,,2013-02-03 15:03:00,
2013-02-03 08:11:00,10.0,5.0,-100.00,WNW,284,1.0,2.0,80,0.00,,,0.00,1.000000,,2013-02-03 15:11:00,
2013-02-03 08:22:00,11.0,6.0,-100.00,East,83,1.0,2.0,78,-99.99,,,0.00,63.000000,,2013-02-03 15:22:00,
2013-02-03 08:42:00,11.0,6.0,-100.00,East,83,1.0,2.0,78,-99.99,,,0.00,63.000000,,2013-02-03 15:42:00,
2013-02-03 08:52:00,11.0,6.0,-100.00,East,83,1.0,2.0,78,-99.99,,,0.00,63.000000,,2013-02-03 15:52:00,
2013-02-03 09:11:00,11.0,6.0,-100.00,East,83,1.0,2.0,78,-99.99,,,0.00,63.000000,,2013-02-03 16:11:00,
2013-02-03 09:42:00,16.0,7.0,-100.00,West,260,0.0,2.0,68,-99.99,,,0.00,171.000000,,2013-02-03 16:42:00,
2013-02-03 09:52:00,16.0,7.0,-100.00,West,260,0.0,2.0,68,-99.99,,,0.00,171.000000,,2013-02-03 16:52:00,
2013-02-03 10:02:00,16.0,7.0,-100.00,West,260,0.0,2.0,68,-99.99,,,0.00,171.000000,,2013-02-03 17:02:00,
2013-02-03 10:11:00,16.0,7.0,-100.00,West,260,0.0,2.0,68,-99.99,,,0.00,171.000000,,2013-02-03 17:11:00,
2013-02-03 10:21:00,16.0,7.0,-100.00,West,260,0.0,2.0,68,-99.99,,,0.00,171.000000,,2013-02-03 17:21:00,
2013-02-03 10:22:00,22.0,4.0,-100.00,West,278,1.0,2.0,46,-99.99,,,0.00,402.000000,,2013-02-03 17:22:00,
2013-02-03 10:42:00,22.0,4.0,-100.00,West,278,1.0,2.0,46,-99.99,,,0.00,402.000000,,2013-02-03 17:42:00,
2013-02-03 10:52:00,22.0,4.0,-100.00,West,278,1.0,2.0,46,-99.99,,,0.00,402.000000,,2013-02-03 17:52:00,
2013-02-03 11:03:00,22.0,4.0,-100.00,West,278,1.0,2.0,46,-99.99,,,0.00,402.000000,,2013-02-03 18:03:00,
2013-02-03 11:12:00,22.0,4.0,-100.00,West,278,1.0,2.0,46,-99.99,,,0.00,402.000000,,2013-02-03 18:12:00,
2013-02-03 11:42:00,20.0,9.0,-100.00,SW,224,1.0,3.0,62,-99.99,,,0.00,411.000000,,2013-02-03 18:42:00,
2013-02-03 11:52:00,20.0,9.0,-100.00,SW,224,1.0,3.0,62,-99.99,,,0.00,411.000000,,2013-02-03 18:52:00,
2013-02-03 12:02:00,20.0,9.0,-100.00,SW,224,1.0,3.0,62,-99.99,,,0.00,411.000000,,2013-02-03 19:02:00,
2013-02-03 12:42:00,26.0,10.0,-100.00,North,357,1.0,2.0,50,-99.99,,,0.00,376.000000,,2013-02-03 19:42:00,
2013-02-03 12:52:00,26.0,10.0,-100.00,North,357,1.0,2.0,50,-99.99,,,0.00,376.000000,,2013-02-03 19:52:00,
2013-02-03 13:01:00,26.0,10.0,-100.00,North,357,1.0,2.0,50,-99.99,,,0.00,376.000000,,2013-02-03 20:01:00,
2013-02-03 13:42:00,25.0,8.0,-100.00,NNE,12,1.0,2.0,47,0.00,,,0.00,387.000000,,2013-02-03 20:42:00,
2013-02-03 13:52:00,25.0,8.0,-100.00,NNE,12,1.0,2.0,47,0.00,,,0.00,387.000000,,2013-02-03 20:52:00,
2013-02-03 14:03:00,25.0,8.0,-100.00,NNE,12,1.0,2.0,47,0.00,,,0.00,387.000000,,2013-02-03 21:03:00,
2013-02-03 14:11:00,25.0,8.0,-100.00,NNE,12,1.0,2.0,47,0.00,,,0.00,387.000000,,2013-02-03 21:11:00,
2013-02-03 14:21:00,25.0,8.0,-100.00,NNE,12,1.0,2.0,47,0.00,,,0.00,387.000000,,2013-02-03 21:21:00,
2013-02-03 14:42:00,22.0,9.0,-100.00,WSW,251,2.0,4.0,56,-99.99,,,0.00,383.000000,,2013-02-03 21:42:00,
2013-02-03 14:52:00,22.0,9.0,-100.00,WSW,251,2.0,4.0,56,-99.99,,,0.00,383.000000,,2013-02-03 21:52:00,
2013-02-03 15:22:00,24.0,9.0,-100.00,SSE,154,0.0,3.0,53,-99.99,,,0.00,293.000000,,2013-02-03 22:22:00,
2013-02-03 15:42:00,24.0,9.0,-100.00,SSE,154,0.0,3.0,53,-99.99,,,0.00,293.000000,,2013-02-03 22:42:00,
2013-02-03 15:52:00,24.0,9.0,-100.00,SSE,154,0.0,3.0,53,-99.99,,,0.00,293.000000,,2013-02-03 22:52:00,
2013-02-03 16:12:00,24.0,9.0,-100.00,SSE,154,0.0,3.0,53,-99.99,,,0.00,293.000000,,2013-02-03 23:12:00,
2013-02-03 16:42:00,21.0,9.0,-100.00,WSW,253,1.0,2.0,58,0.00,,,0.00,190.000000,,2013-02-03 23:42:00,
2013-02-03 16:52:00,21.0,9.0,-100.00,WSW,253,1.0,2.0,58,0.00,,,0.00,190.000000,,2013-02-03 23:52:00,
2013-02-03 17:42:00,18.0,7.0,-100.00,WSW,248,0.0,3.0,62,-99.99,,,0.00,54.000000,,2013-02-04 00:42:00,
2013-02-03 17:52:00,18.0,7.0,-100.00,WSW,248,0.0,3.0,62,-99.99,,,0.00,54.000000,,2013-02-04 00:52:00,
2013-02-03 18:42:00,18.0,7.0,-100.00,East,84,2.0,3.0,61,-99.99,,,0.00,3.000000,,2013-02-04 01:42:00,
2013-02-03 18:52:00,18.0,7.0,-100.00,East,84,2.0,3.0,61,-99.99,,,0.00,3.000000,,2013-02-04 01:52:00,
2013-02-03 19:42:00,18.0,6.0,-100.00,West,278,2.0,3.0,59,0.00,,,0.00,0.000000,,2013-02-04 02:42:00,
2013-02-03 19:52:00,18.0,6.0,-100.00,West,278,2.0,3.0,59,0.00,,,0.00,0.000000,,2013-02-04 02:52:00,
2013-02-03 20:02:00,18.0,6.0,-100.00,West,278,2.0,3.0,59,0.00,,,0.00,0.000000,,2013-02-04 03:02:00,
2013-02-03 20:42:00,17.0,8.0,-100.00,East,93,1.0,3.0,68,0.00,,,0.00,0.000000,,2013-02-04 03:42:00,
2013-02-03 20:52:00,17.0,8.0,-100.00,East,93,1.0,3.0,68,0.00,,,0.00,0.000000,,2013-02-04 03:52:00,
2013-02-03 21:01:00,17.0,8.0,-100.00,East,93,1.0,3.0,68,0.00,,,0.00,0.000000,,2013-02-04 04:01:00,
2013-02-03 21:11:00,17.0,8.0,-100.00,East,93,1.0,3.0,68,0.00,,,0.00,0.000000,,2013-02-04 04:11:00,
2013-02-03 21:21:00,17.0,8.0,-100.00,East,93,1.0,3.0,68,0.00,,,0.00,0.000000,,2013-02-04 04:21:00,
2013-02-03 21:22:00,19.0,12.0,-100.00,ESE,122,1.0,3.0,73,0.00,,,0.00,0.000000,,2013-02-04 04:22:00,
2013-02-03 21:42:00,19.0,12.0,-100.00,ESE,122,1.0,3.0,73,0.00,,,0.00,0.000000,,2013-02-04 04:42:00,
2013-02-03 21:52:00,19.0,12.0,-100.00,ESE,122,1.0,3.0,73,0.00,,,0.00,0.000000,,2013-02-04 04:52:00,
2013-02-03 22:03:00,19.0,12.0,-100.00,ESE,122,1.0,3.0,73,0.00,,,0.00,0.000000,,2013-02-04 05:03:00,
2013-02-03 22:11:00,19.0,12.0,-100.00,ESE,122,1.0,3.0,73,0.00,,,0.00,0.000000,,2013-02-04 05:11:00,
2013-02-03 22:42:00,21.0,15.0,-100.00,SE,133,2.0,3.0,78,0.00,,,0.00,0.000000,,2013-02-04 05:42:00,
2013-02-03 22:52:00,21.0,15.0,-100.00,SE,133,2.0,3.0,78,0.00,,,0.00,0.000000,,2013-02-04 05:52:00,
2013-02-03 23:02:00,21.0,15.0,-100.00,SE,133,2.0,3.0,78,0.00,,,0.00,0.000000,,2013-02-04 06:02:00,
2013-02-03 23:11:00,21.0,15.0,-100.00,SE,133,2.0,3.0,78,0.00,,,0.00,0.000000,,2013-02-04 06:11:00,
2013-02-03 23:21:00,21.0,15.0,-100.00,SE,133,2.0,3.0,78,0.00,,,0.00,0.000000,,2013-02-04 06:21:00,
2013-02-03 23:42:00,21.0,16.0,-100.00,NNW,337,1.0,3.0,80,0.00,,,0.00,0.000000,,2013-02-04 06:42:00,
2013-02-03 23:52:00,21.0,16.0,-100.00,NNW,337,1.0,3.0,80,0.00,,,0.00,0.000000,,2013-02-04 06:52:00,